sensor_id;sensor_type;location;lat;lon;timestamp;temperature;humidity
3850;DHT22;1940;51.052;13.678;2023-12-04T00:02:21;-2.30;89.60
3850;DHT22;1940;51.052;13.678;2023-12-04T00:04:46;-2.20;89.50
3850;DHT22;1940;51.052;13.678;2023-12-04T00:07:11;-2.20;89.30
3850;DHT22;1940;51.052;13.678;2023-12-04T00:09:37;-2.20;89.20
3850;DHT22;1940;51.052;13.678;2023-12-04T00:12:03;-2.30;89.20
3850;DHT22;1940;51.052;13.678;2023-12-04T00:14:28;-2.20;89.10
3850;DHT22;1940;51.052;13.678;2023-12-04T00:16:54;-2.20;89.10
3850;DHT22;1940;51.052;13.678;2023-12-04T00:19:19;-2.20;89.10
3850;DHT22;1940;51.052;13.678;2023-12-04T00:21:44;-2.20;89.20
3850;DHT22;1940;51.052;13.678;2023-12-04T00:24:10;-2.20;89.00
3850;DHT22;1940;51.052;13.678;2023-12-04T00:26:35;-2.20;89.10
3850;DHT22;1940;51.052;13.678;2023-12-04T00:29:01;-2.20;89.00
3850;DHT22;1940;51.052;13.678;2023-12-04T00:31:27;-2.30;89.10
3850;DHT22;1940;51.052;13.678;2023-12-04T00:33:53;-2.30;88.90
3850;DHT22;1940;51.052;13.678;2023-12-04T00:36:18;-2.30;88.90
3850;DHT22;1940;51.052;13.678;2023-12-04T00:38:45;-2.30;88.80
3850;DHT22;1940;51.052;13.678;2023-12-04T00:41:11;-2.40;88.80
3850;DHT22;1940;51.052;13.678;2023-12-04T00:43:36;-2.30;88.80
3850;DHT22;1940;51.052;13.678;2023-12-04T00:46:02;-2.30;88.70
3850;DHT22;1940;51.052;13.678;2023-12-04T00:48:27;-2.50;88.40
3850;DHT22;1940;51.052;13.678;2023-12-04T00:50:54;-2.50;88.70
3850;DHT22;1940;51.052;13.678;2023-12-04T00:53:19;-2.50;88.70
3850;DHT22;1940;51.052;13.678;2023-12-04T00:55:45;-2.60;88.20
3850;DHT22;1940;51.052;13.678;2023-12-04T00:58:11;-2.70;88.40
3850;DHT22;1940;51.052;13.678;2023-12-04T01:00:36;-2.70;88.50
3850;DHT22;1940;51.052;13.678;2023-12-04T01:03:01;-2.70;88.70
3850;DHT22;1940;51.052;13.678;2023-12-04T01:05:27;-2.80;88.80
3850;DHT22;1940;51.052;13.678;2023-12-04T01:07:52;-2.80;88.80
3850;DHT22;1940;51.052;13.678;2023-12-04T01:10:18;-2.90;88.80
3850;DHT22;1940;51.052;13.678;2023-12-04T01:12:43;-2.90;88.70
3850;DHT22;1940;51.052;13.678;2023-12-04T01:15:09;-2.90;88.90
3850;DHT22;1940;51.052;13.678;2023-12-04T01:17:35;-2.90;89.10
3850;DHT22;1940;51.052;13.678;2023-12-04T01:20:00;-3.00;89.00
3850;DHT22;1940;51.052;13.678;2023-12-04T01:22:26;-3.10;89.20
3850;DHT22;1940;51.052;13.678;2023-12-04T01:24:51;-3.00;89.30
3850;DHT22;1940;51.052;13.678;2023-12-04T01:27:17;-3.00;89.30
3850;DHT22;1940;51.052;13.678;2023-12-04T01:29:42;-3.10;89.20
3850;DHT22;1940;51.052;13.678;2023-12-04T01:32:08;-3.10;89.30
3850;DHT22;1940;51.052;13.678;2023-12-04T01:34:33;-3.20;89.20
3850;DHT22;1940;51.052;13.678;2023-12-04T01:36:59;-3.10;89.50
3850;DHT22;1940;51.052;13.678;2023-12-04T01:39:24;-3.10;89.30
3850;DHT22;1940;51.052;13.678;2023-12-04T01:41:49;-3.20;89.40
3850;DHT22;1940;51.052;13.678;2023-12-04T01:44:15;-3.20;89.30
3850;DHT22;1940;51.052;13.678;2023-12-04T01:46:41;-3.20;89.40
3850;DHT22;1940;51.052;13.678;2023-12-04T01:49:07;-3.20;89.30
3850;DHT22;1940;51.052;13.678;2023-12-04T01:51:33;-3.20;89.30
3850;DHT22;1940;51.052;13.678;2023-12-04T01:53:59;-3.30;89.40
3850;DHT22;1940;51.052;13.678;2023-12-04T01:56:25;-3.20;89.40
3850;DHT22;1940;51.052;13.678;2023-12-04T01:58:51;-3.30;89.10
3850;DHT22;1940;51.052;13.678;2023-12-04T02:01:18;-3.40;89.10
3850;DHT22;1940;51.052;13.678;2023-12-04T02:03:45;-3.50;89.20
3850;DHT22;1940;51.052;13.678;2023-12-04T02:06:12;-3.50;89.20
3850;DHT22;1940;51.052;13.678;2023-12-04T02:08:37;-3.50;89.10
3850;DHT22;1940;51.052;13.678;2023-12-04T02:11:03;-3.50;89.10
3850;DHT22;1940;51.052;13.678;2023-12-04T02:13:28;-3.60;89.00
3850;DHT22;1940;51.052;13.678;2023-12-04T02:15:55;-3.60;88.80
3850;DHT22;1940;51.052;13.678;2023-12-04T02:18:23;-3.70;89.00
3850;DHT22;1940;51.052;13.678;2023-12-04T02:20:49;-3.80;89.00
3850;DHT22;1940;51.052;13.678;2023-12-04T02:23:15;-3.80;88.70
3850;DHT22;1940;51.052;13.678;2023-12-04T02:25:40;-4.00;88.80
3850;DHT22;1940;51.052;13.678;2023-12-04T02:28:08;-4.10;89.00
3850;DHT22;1940;51.052;13.678;2023-12-04T02:30:37;-4.20;89.20
3850;DHT22;1940;51.052;13.678;2023-12-04T02:33:05;-4.20;89.50
3850;DHT22;1940;51.052;13.678;2023-12-04T02:35:33;-4.10;89.40
3850;DHT22;1940;51.052;13.678;2023-12-04T02:38:02;-4.10;89.10
3850;DHT22;1940;51.052;13.678;2023-12-04T02:40:28;-4.00;89.00
3850;DHT22;1940;51.052;13.678;2023-12-04T02:42:54;-4.10;88.80
3850;DHT22;1940;51.052;13.678;2023-12-04T02:45:19;-4.10;89.20
3850;DHT22;1940;51.052;13.678;2023-12-04T02:47:45;-4.00;89.10
3850;DHT22;1940;51.052;13.678;2023-12-04T02:50:10;-3.90;89.00
3850;DHT22;1940;51.052;13.678;2023-12-04T02:52:36;-3.90;89.00
3850;DHT22;1940;51.052;13.678;2023-12-04T02:55:01;-3.80;88.90
3850;DHT22;1940;51.052;13.678;2023-12-04T02:57:27;-3.70;88.90
3850;DHT22;1940;51.052;13.678;2023-12-04T02:59:52;-3.70;88.70
3850;DHT22;1940;51.052;13.678;2023-12-04T03:02:18;-3.70;88.60
3850;DHT22;1940;51.052;13.678;2023-12-04T03:04:43;-3.60;88.30
3850;DHT22;1940;51.052;13.678;2023-12-04T03:07:09;-3.70;87.90
3850;DHT22;1940;51.052;13.678;2023-12-04T03:09:34;-3.70;87.90
3850;DHT22;1940;51.052;13.678;2023-12-04T03:12:00;-3.70;88.00
3850;DHT22;1940;51.052;13.678;2023-12-04T03:14:25;-3.70;87.80
3850;DHT22;1940;51.052;13.678;2023-12-04T03:16:50;-3.70;87.60
3850;DHT22;1940;51.052;13.678;2023-12-04T03:19:16;-3.70;87.30
3850;DHT22;1940;51.052;13.678;2023-12-04T03:21:41;-3.70;87.40
3850;DHT22;1940;51.052;13.678;2023-12-04T03:24:07;-3.70;87.50
3850;DHT22;1940;51.052;13.678;2023-12-04T03:26:32;-3.70;87.50
3850;DHT22;1940;51.052;13.678;2023-12-04T03:28:58;-3.70;87.30
3850;DHT22;1940;51.052;13.678;2023-12-04T03:31:23;-3.70;87.30
3850;DHT22;1940;51.052;13.678;2023-12-04T03:33:49;-3.70;87.40
3850;DHT22;1940;51.052;13.678;2023-12-04T03:36:14;-3.80;87.70
3850;DHT22;1940;51.052;13.678;2023-12-04T03:38:40;-3.70;88.00
3850;DHT22;1940;51.052;13.678;2023-12-04T03:41:13;-3.70;88.20
3850;DHT22;1940;51.052;13.678;2023-12-04T03:43:39;-3.70;88.30
3850;DHT22;1940;51.052;13.678;2023-12-04T03:46:04;-3.70;88.50
3850;DHT22;1940;51.052;13.678;2023-12-04T03:48:30;-3.70;88.60
3850;DHT22;1940;51.052;13.678;2023-12-04T03:50:55;-3.70;88.70
3850;DHT22;1940;51.052;13.678;2023-12-04T03:53:21;-3.70;88.90
3850;DHT22;1940;51.052;13.678;2023-12-04T03:55:46;-3.70;88.80
3850;DHT22;1940;51.052;13.678;2023-12-04T03:58:12;-3.70;88.70
3850;DHT22;1940;51.052;13.678;2023-12-04T04:00:37;-3.70;88.90
3850;DHT22;1940;51.052;13.678;2023-12-04T04:03:06;-3.70;89.00
3850;DHT22;1940;51.052;13.678;2023-12-04T04:05:32;-3.70;89.10
3850;DHT22;1940;51.052;13.678;2023-12-04T04:07:59;-3.70;89.30
3850;DHT22;1940;51.052;13.678;2023-12-04T04:10:25;-3.80;89.40
3850;DHT22;1940;51.052;13.678;2023-12-04T04:12:50;-3.80;89.80
3850;DHT22;1940;51.052;13.678;2023-12-04T04:15:16;-3.80;89.90
3850;DHT22;1940;51.052;13.678;2023-12-04T04:17:41;-3.70;90.00
3850;DHT22;1940;51.052;13.678;2023-12-04T04:20:07;-3.70;90.00
3850;DHT22;1940;51.052;13.678;2023-12-04T04:22:33;-3.70;89.90
3850;DHT22;1940;51.052;13.678;2023-12-04T04:25:04;-3.70;89.80
3850;DHT22;1940;51.052;13.678;2023-12-04T04:27:30;-3.70;89.70
3850;DHT22;1940;51.052;13.678;2023-12-04T04:29:55;-3.70;89.50
3850;DHT22;1940;51.052;13.678;2023-12-04T04:32:21;-3.70;89.20
3850;DHT22;1940;51.052;13.678;2023-12-04T04:34:46;-3.70;89.10
3850;DHT22;1940;51.052;13.678;2023-12-04T04:37:12;-3.80;89.00
3850;DHT22;1940;51.052;13.678;2023-12-04T04:39:39;-3.80;88.90
3850;DHT22;1940;51.052;13.678;2023-12-04T04:42:05;-3.90;89.20
3850;DHT22;1940;51.052;13.678;2023-12-04T04:44:30;-3.90;89.60
3850;DHT22;1940;51.052;13.678;2023-12-04T04:46:56;-3.90;89.80
3850;DHT22;1940;51.052;13.678;2023-12-04T04:49:21;-3.90;90.10
3850;DHT22;1940;51.052;13.678;2023-12-04T04:51:47;-3.90;90.10
3850;DHT22;1940;51.052;13.678;2023-12-04T04:54:12;-3.90;90.30
3850;DHT22;1940;51.052;13.678;2023-12-04T04:56:38;-3.90;90.40
3850;DHT22;1940;51.052;13.678;2023-12-04T04:59:03;-3.90;90.70
3850;DHT22;1940;51.052;13.678;2023-12-04T05:01:29;-4.00;90.80
3850;DHT22;1940;51.052;13.678;2023-12-04T05:03:54;-3.90;91.10
3850;DHT22;1940;51.052;13.678;2023-12-04T05:06:20;-3.90;91.20
3850;DHT22;1940;51.052;13.678;2023-12-04T05:08:47;-3.80;91.30
3850;DHT22;1940;51.052;13.678;2023-12-04T05:11:16;-3.80;91.30
3850;DHT22;1940;51.052;13.678;2023-12-04T05:13:41;-3.80;91.50
3850;DHT22;1940;51.052;13.678;2023-12-04T05:16:07;-3.80;91.40
3850;DHT22;1940;51.052;13.678;2023-12-04T05:18:33;-3.80;91.70
3850;DHT22;1940;51.052;13.678;2023-12-04T05:20:58;-3.70;91.70
3850;DHT22;1940;51.052;13.678;2023-12-04T05:23:24;-3.60;91.40
3850;DHT22;1940;51.052;13.678;2023-12-04T05:25:49;-3.60;91.60
3850;DHT22;1940;51.052;13.678;2023-12-04T05:28:15;-3.60;91.60
3850;DHT22;1940;51.052;13.678;2023-12-04T05:30:40;-3.50;91.40
3850;DHT22;1940;51.052;13.678;2023-12-04T05:33:06;-3.50;91.40
3850;DHT22;1940;51.052;13.678;2023-12-04T05:35:31;-3.40;91.30
3850;DHT22;1940;51.052;13.678;2023-12-04T05:38:01;-3.40;91.20
3850;DHT22;1940;51.052;13.678;2023-12-04T05:40:27;-3.40;90.90
3850;DHT22;1940;51.052;13.678;2023-12-04T05:42:52;-3.30;90.90
3850;DHT22;1940;51.052;13.678;2023-12-04T05:45:18;-3.30;90.50
3850;DHT22;1940;51.052;13.678;2023-12-04T05:47:43;-3.30;90.50
3850;DHT22;1940;51.052;13.678;2023-12-04T05:50:09;-3.30;90.50
3850;DHT22;1940;51.052;13.678;2023-12-04T05:52:34;-3.30;90.50
3850;DHT22;1940;51.052;13.678;2023-12-04T05:55:00;-3.30;90.60
3850;DHT22;1940;51.052;13.678;2023-12-04T05:57:25;-3.20;90.50
3850;DHT22;1940;51.052;13.678;2023-12-04T05:59:51;-3.20;90.60
3850;DHT22;1940;51.052;13.678;2023-12-04T06:02:16;-3.20;90.20
3850;DHT22;1940;51.052;13.678;2023-12-04T06:04:42;-3.20;90.60
3850;DHT22;1940;51.052;13.678;2023-12-04T06:07:07;-3.20;90.60
3850;DHT22;1940;51.052;13.678;2023-12-04T06:09:33;-3.10;90.40
3850;DHT22;1940;51.052;13.678;2023-12-04T06:11:59;-3.20;90.40
3850;DHT22;1940;51.052;13.678;2023-12-04T06:14:29;-3.10;90.60
3850;DHT22;1940;51.052;13.678;2023-12-04T06:16:55;-3.10;90.40
3850;DHT22;1940;51.052;13.678;2023-12-04T06:19:21;-3.10;90.30
3850;DHT22;1940;51.052;13.678;2023-12-04T06:21:46;-3.10;90.10
3850;DHT22;1940;51.052;13.678;2023-12-04T06:24:12;-3.10;90.20
3850;DHT22;1940;51.052;13.678;2023-12-04T06:26:42;-3.00;90.30
3850;DHT22;1940;51.052;13.678;2023-12-04T06:29:10;-2.90;90.30
3850;DHT22;1940;51.052;13.678;2023-12-04T06:31:36;-2.80;89.80
3850;DHT22;1940;51.052;13.678;2023-12-04T06:34:02;-2.80;89.80
3850;DHT22;1940;51.052;13.678;2023-12-04T06:36:31;-2.70;89.60
3850;DHT22;1940;51.052;13.678;2023-12-04T06:39:01;-2.70;88.90
3850;DHT22;1940;51.052;13.678;2023-12-04T06:41:29;-2.70;88.80
3850;DHT22;1940;51.052;13.678;2023-12-04T06:43:55;-2.60;88.50
3850;DHT22;1940;51.052;13.678;2023-12-04T06:46:21;-2.60;88.20
3850;DHT22;1940;51.052;13.678;2023-12-04T06:48:50;-2.60;87.90
3850;DHT22;1940;51.052;13.678;2023-12-04T06:51:18;-2.60;88.00
3850;DHT22;1940;51.052;13.678;2023-12-04T06:53:44;-2.60;88.00
3850;DHT22;1940;51.052;13.678;2023-12-04T06:56:09;-2.60;87.70
3850;DHT22;1940;51.052;13.678;2023-12-04T06:58:35;-2.60;87.80
3850;DHT22;1940;51.052;13.678;2023-12-04T07:01:00;-2.60;87.70
3850;DHT22;1940;51.052;13.678;2023-12-04T07:03:26;-2.50;87.50
3850;DHT22;1940;51.052;13.678;2023-12-04T07:05:51;-2.50;87.20
3850;DHT22;1940;51.052;13.678;2023-12-04T07:08:18;-2.50;87.00
3850;DHT22;1940;51.052;13.678;2023-12-04T07:10:43;-2.50;87.40
3850;DHT22;1940;51.052;13.678;2023-12-04T07:13:09;-2.50;87.10
3850;DHT22;1940;51.052;13.678;2023-12-04T07:15:34;-2.50;86.80
3850;DHT22;1940;51.052;13.678;2023-12-04T07:18:00;-2.50;86.90
3850;DHT22;1940;51.052;13.678;2023-12-04T07:20:26;-2.50;87.00
3850;DHT22;1940;51.052;13.678;2023-12-04T07:22:51;-2.50;86.90
3850;DHT22;1940;51.052;13.678;2023-12-04T07:25:17;-2.50;86.80
3850;DHT22;1940;51.052;13.678;2023-12-04T07:27:42;-2.40;86.80
3850;DHT22;1940;51.052;13.678;2023-12-04T07:30:08;-2.40;86.70
3850;DHT22;1940;51.052;13.678;2023-12-04T07:32:34;-2.40;86.40
3850;DHT22;1940;51.052;13.678;2023-12-04T07:35:00;-2.40;86.50
3850;DHT22;1940;51.052;13.678;2023-12-04T07:37:26;-2.40;86.10
3850;DHT22;1940;51.052;13.678;2023-12-04T07:39:51;-2.20;86.40
3850;DHT22;1940;51.052;13.678;2023-12-04T07:42:17;-2.20;85.80
3850;DHT22;1940;51.052;13.678;2023-12-04T07:44:42;-2.20;85.60
3850;DHT22;1940;51.052;13.678;2023-12-04T07:47:08;-2.10;85.50
3850;DHT22;1940;51.052;13.678;2023-12-04T07:49:33;-2.10;85.30
3850;DHT22;1940;51.052;13.678;2023-12-04T07:51:59;-2.00;85.20
3850;DHT22;1940;51.052;13.678;2023-12-04T07:54:24;-1.80;85.30
3850;DHT22;1940;51.052;13.678;2023-12-04T07:56:51;-1.70;84.50
3850;DHT22;1940;51.052;13.678;2023-12-04T07:59:17;-1.60;83.90
3850;DHT22;1940;51.052;13.678;2023-12-04T08:01:43;-1.40;83.30
3850;DHT22;1940;51.052;13.678;2023-12-04T08:04:10;-1.20;82.80
3850;DHT22;1940;51.052;13.678;2023-12-04T08:06:35;-1.00;82.00
3850;DHT22;1940;51.052;13.678;2023-12-04T08:09:01;-0.90;81.30
3850;DHT22;1940;51.052;13.678;2023-12-04T08:11:26;-0.80;80.70
3850;DHT22;1940;51.052;13.678;2023-12-04T08:13:52;-0.70;80.30
3850;DHT22;1940;51.052;13.678;2023-12-04T08:16:17;-0.40;80.20
3850;DHT22;1940;51.052;13.678;2023-12-04T08:18:43;-0.10;79.40
3850;DHT22;1940;51.052;13.678;2023-12-04T08:21:09;0.10;78.00
3850;DHT22;1940;51.052;13.678;2023-12-04T08:23:34;0.20;77.80
3850;DHT22;1940;51.052;13.678;2023-12-04T08:26:00;0.50;76.00
3850;DHT22;1940;51.052;13.678;2023-12-04T08:28:25;0.60;75.80
3850;DHT22;1940;51.052;13.678;2023-12-04T08:30:51;0.80;75.20
3850;DHT22;1940;51.052;13.678;2023-12-04T08:33:16;0.90;74.50
3850;DHT22;1940;51.052;13.678;2023-12-04T08:35:43;0.90;74.20
3850;DHT22;1940;51.052;13.678;2023-12-04T08:38:08;0.80;74.30
3850;DHT22;1940;51.052;13.678;2023-12-04T08:40:34;0.50;74.70
3850;DHT22;1940;51.052;13.678;2023-12-04T08:42:59;0.40;75.30
3850;DHT22;1940;51.052;13.678;2023-12-04T08:45:25;0.50;75.10
3850;DHT22;1940;51.052;13.678;2023-12-04T08:47:50;0.70;74.30
3850;DHT22;1940;51.052;13.678;2023-12-04T08:50:16;1.00;73.80
3850;DHT22;1940;51.052;13.678;2023-12-04T08:52:42;1.20;72.80
3850;DHT22;1940;51.052;13.678;2023-12-04T08:55:08;1.50;72.10
3850;DHT22;1940;51.052;13.678;2023-12-04T08:57:33;1.20;72.00
3850;DHT22;1940;51.052;13.678;2023-12-04T08:59:59;1.00;72.70
3850;DHT22;1940;51.052;13.678;2023-12-04T09:02:24;0.90;73.20
3850;DHT22;1940;51.052;13.678;2023-12-04T09:04:50;0.90;73.50
3850;DHT22;1940;51.052;13.678;2023-12-04T09:07:15;0.80;73.50
3850;DHT22;1940;51.052;13.678;2023-12-04T09:09:41;0.60;73.90
3850;DHT22;1940;51.052;13.678;2023-12-04T09:12:06;0.60;74.50
3850;DHT22;1940;51.052;13.678;2023-12-04T09:14:34;0.50;74.50
3850;DHT22;1940;51.052;13.678;2023-12-04T09:16:59;0.40;75.10
3850;DHT22;1940;51.052;13.678;2023-12-04T09:19:25;0.30;75.20
3850;DHT22;1940;51.052;13.678;2023-12-04T09:21:50;0.30;75.20
3850;DHT22;1940;51.052;13.678;2023-12-04T09:24:16;0.40;74.90
3850;DHT22;1940;51.052;13.678;2023-12-04T09:26:41;0.60;75.10
3850;DHT22;1940;51.052;13.678;2023-12-04T09:29:10;0.80;74.30
3850;DHT22;1940;51.052;13.678;2023-12-04T09:31:36;1.00;73.80
3850;DHT22;1940;51.052;13.678;2023-12-04T09:34:01;1.00;73.60
3850;DHT22;1940;51.052;13.678;2023-12-04T09:36:27;1.30;73.00
3850;DHT22;1940;51.052;13.678;2023-12-04T09:38:52;1.50;72.70
3850;DHT22;1940;51.052;13.678;2023-12-04T09:41:18;1.70;71.30
3850;DHT22;1940;51.052;13.678;2023-12-04T09:43:46;1.70;71.30
3850;DHT22;1940;51.052;13.678;2023-12-04T09:46:12;1.40;72.00
3850;DHT22;1940;51.052;13.678;2023-12-04T09:48:38;1.30;72.40
3850;DHT22;1940;51.052;13.678;2023-12-04T09:51:06;1.40;72.80
3850;DHT22;1940;51.052;13.678;2023-12-04T09:53:33;1.30;72.70
3850;DHT22;1940;51.052;13.678;2023-12-04T09:56:03;1.30;72.60
3850;DHT22;1940;51.052;13.678;2023-12-04T09:58:28;1.20;72.70
3850;DHT22;1940;51.052;13.678;2023-12-04T10:00:56;1.10;72.70
3850;DHT22;1940;51.052;13.678;2023-12-04T10:03:22;1.00;73.40
3850;DHT22;1940;51.052;13.678;2023-12-04T10:05:48;1.10;73.80
3850;DHT22;1940;51.052;13.678;2023-12-04T10:08:14;1.00;73.70
3850;DHT22;1940;51.052;13.678;2023-12-04T10:10:39;0.90;74.30
3850;DHT22;1940;51.052;13.678;2023-12-04T10:13:05;1.00;74.00
3850;DHT22;1940;51.052;13.678;2023-12-04T10:15:31;1.00;74.10
3850;DHT22;1940;51.052;13.678;2023-12-04T10:17:57;0.90;73.80
3850;DHT22;1940;51.052;13.678;2023-12-04T10:20:23;0.80;74.70
3850;DHT22;1940;51.052;13.678;2023-12-04T10:22:57;0.80;74.70
3850;DHT22;1940;51.052;13.678;2023-12-04T10:25:24;0.90;74.80
3850;DHT22;1940;51.052;13.678;2023-12-04T10:27:51;0.90;74.70
3850;DHT22;1940;51.052;13.678;2023-12-04T10:30:29;0.90;74.70
3850;DHT22;1940;51.052;13.678;2023-12-04T10:33:04;1.00;74.60
3850;DHT22;1940;51.052;13.678;2023-12-04T10:35:32;1.10;74.60
3850;DHT22;1940;51.052;13.678;2023-12-04T10:37:58;1.10;74.20
3850;DHT22;1940;51.052;13.678;2023-12-04T10:40:29;1.20;73.90
3850;DHT22;1940;51.052;13.678;2023-12-04T10:45:35;1.10;73.90
3850;DHT22;1940;51.052;13.678;2023-12-04T10:48:02;1.00;74.10
3850;DHT22;1940;51.052;13.678;2023-12-04T10:50:34;1.00;74.20
3850;DHT22;1940;51.052;13.678;2023-12-04T10:53:01;1.00;74.30
3850;DHT22;1940;51.052;13.678;2023-12-04T10:55:29;1.00;74.20
3850;DHT22;1940;51.052;13.678;2023-12-04T10:57:55;1.00;73.90
3850;DHT22;1940;51.052;13.678;2023-12-04T11:00:22;1.00;73.90
3850;DHT22;1940;51.052;13.678;2023-12-04T11:02:48;1.00;73.90
3850;DHT22;1940;51.052;13.678;2023-12-04T11:05:16;0.80;73.70
3850;DHT22;1940;51.052;13.678;2023-12-04T11:07:57;1.00;74.10
3850;DHT22;1940;51.052;13.678;2023-12-04T11:10:26;1.20;73.60
3850;DHT22;1940;51.052;13.678;2023-12-04T11:13:00;1.40;73.30
3850;DHT22;1940;51.052;13.678;2023-12-04T11:15:29;1.50;72.20
3850;DHT22;1940;51.052;13.678;2023-12-04T11:17:59;1.70;72.30
3850;DHT22;1940;51.052;13.678;2023-12-04T11:20:30;1.80;71.00
3850;DHT22;1940;51.052;13.678;2023-12-04T11:22:56;1.40;71.40
3850;DHT22;1940;51.052;13.678;2023-12-04T11:25:23;1.20;72.50
3850;DHT22;1940;51.052;13.678;2023-12-04T11:27:53;1.20;72.80
3850;DHT22;1940;51.052;13.678;2023-12-04T11:30:20;1.00;73.10
3850;DHT22;1940;51.052;13.678;2023-12-04T11:32:46;0.90;73.60
3850;DHT22;1940;51.052;13.678;2023-12-04T11:35:15;0.70;73.90
3850;DHT22;1940;51.052;13.678;2023-12-04T11:37:41;0.70;74.30
3850;DHT22;1940;51.052;13.678;2023-12-04T11:40:11;0.60;74.20
3850;DHT22;1940;51.052;13.678;2023-12-04T11:42:37;0.60;75.00
3850;DHT22;1940;51.052;13.678;2023-12-04T11:45:05;0.50;74.90
3850;DHT22;1940;51.052;13.678;2023-12-04T11:47:41;0.30;75.00
3850;DHT22;1940;51.052;13.678;2023-12-04T11:50:13;0.30;75.20
3850;DHT22;1940;51.052;13.678;2023-12-04T11:52:38;0.30;75.40
3850;DHT22;1940;51.052;13.678;2023-12-04T11:55:04;0.30;75.40
3850;DHT22;1940;51.052;13.678;2023-12-04T11:57:35;0.20;75.40
3850;DHT22;1940;51.052;13.678;2023-12-04T12:02:50;0.20;76.00
3850;DHT22;1940;51.052;13.678;2023-12-04T12:05:26;0.20;75.80
3850;DHT22;1940;51.052;13.678;2023-12-04T12:07:52;0.20;75.50
3850;DHT22;1940;51.052;13.678;2023-12-04T12:10:17;0.20;75.90
3850;DHT22;1940;51.052;13.678;2023-12-04T12:12:43;0.20;75.80
3850;DHT22;1940;51.052;13.678;2023-12-04T12:15:09;0.20;75.70
3850;DHT22;1940;51.052;13.678;2023-12-04T12:17:37;0.20;75.60
3850;DHT22;1940;51.052;13.678;2023-12-04T12:20:03;0.30;75.70
3850;DHT22;1940;51.052;13.678;2023-12-04T12:22:32;0.40;75.60
3850;DHT22;1940;51.052;13.678;2023-12-04T12:24:58;0.50;75.00
3850;DHT22;1940;51.052;13.678;2023-12-04T12:27:25;0.30;74.70
3850;DHT22;1940;51.052;13.678;2023-12-04T12:29:50;0.40;75.10
3850;DHT22;1940;51.052;13.678;2023-12-04T12:32:16;0.50;75.30
3850;DHT22;1940;51.052;13.678;2023-12-04T12:34:41;0.50;74.90
3850;DHT22;1940;51.052;13.678;2023-12-04T12:37:08;0.50;74.50
3850;DHT22;1940;51.052;13.678;2023-12-04T12:39:34;0.40;74.50
3850;DHT22;1940;51.052;13.678;2023-12-04T12:42:00;0.30;74.80
3850;DHT22;1940;51.052;13.678;2023-12-04T12:44:27;0.30;74.90
3850;DHT22;1940;51.052;13.678;2023-12-04T12:46:53;0.40;74.90
3850;DHT22;1940;51.052;13.678;2023-12-04T12:49:19;0.30;74.70
3850;DHT22;1940;51.052;13.678;2023-12-04T12:51:47;0.30;74.70
3850;DHT22;1940;51.052;13.678;2023-12-04T12:54:13;0.30;74.80
3850;DHT22;1940;51.052;13.678;2023-12-04T12:56:39;0.20;75.00
3850;DHT22;1940;51.052;13.678;2023-12-04T12:59:05;0.30;75.40
3850;DHT22;1940;51.052;13.678;2023-12-04T13:01:32;0.20;75.40
3850;DHT22;1940;51.052;13.678;2023-12-04T13:03:57;0.30;75.70
3850;DHT22;1940;51.052;13.678;2023-12-04T13:06:24;0.30;75.60
3850;DHT22;1940;51.052;13.678;2023-12-04T13:08:49;0.30;75.50
3850;DHT22;1940;51.052;13.678;2023-12-04T13:11:15;0.30;75.60
3850;DHT22;1940;51.052;13.678;2023-12-04T13:13:40;0.30;75.70
3850;DHT22;1940;51.052;13.678;2023-12-04T13:16:06;0.30;76.20
3850;DHT22;1940;51.052;13.678;2023-12-04T13:18:32;0.30;75.90
3850;DHT22;1940;51.052;13.678;2023-12-04T13:21:00;0.20;76.20
3850;DHT22;1940;51.052;13.678;2023-12-04T13:23:26;0.20;76.10
3850;DHT22;1940;51.052;13.678;2023-12-04T13:25:51;0.20;76.20
3850;DHT22;1940;51.052;13.678;2023-12-04T13:28:17;0.20;76.20
3850;DHT22;1940;51.052;13.678;2023-12-04T13:30:42;0.10;76.60
3850;DHT22;1940;51.052;13.678;2023-12-04T13:33:08;0.10;76.60
3850;DHT22;1940;51.052;13.678;2023-12-04T13:35:33;0.10;76.60
3850;DHT22;1940;51.052;13.678;2023-12-04T13:37:59;0.20;77.10
3850;DHT22;1940;51.052;13.678;2023-12-04T13:40:24;0.20;77.00
3850;DHT22;1940;51.052;13.678;2023-12-04T13:42:53;0.20;77.00
3850;DHT22;1940;51.052;13.678;2023-12-04T13:45:38;0.20;76.90
3850;DHT22;1940;51.052;13.678;2023-12-04T13:48:03;0.20;77.20
3850;DHT22;1940;51.052;13.678;2023-12-04T13:50:29;0.20;77.50
3850;DHT22;1940;51.052;13.678;2023-12-04T13:52:54;0.10;77.00
3850;DHT22;1940;51.052;13.678;2023-12-04T13:55:23;0.00;77.50
3850;DHT22;1940;51.052;13.678;2023-12-04T13:58:06;0.00;77.20
3850;DHT22;1940;51.052;13.678;2023-12-04T14:00:36;-0.10;77.60
3850;DHT22;1940;51.052;13.678;2023-12-04T14:03:03;-0.10;77.90
3850;DHT22;1940;51.052;13.678;2023-12-04T14:05:33;0.00;77.60
3850;DHT22;1940;51.052;13.678;2023-12-04T14:07:59;0.00;77.50
3850;DHT22;1940;51.052;13.678;2023-12-04T14:10:26;-0.10;77.00
3850;DHT22;1940;51.052;13.678;2023-12-04T14:12:52;-0.10;77.40
3850;DHT22;1940;51.052;13.678;2023-12-04T14:15:18;-0.10;77.40
3850;DHT22;1940;51.052;13.678;2023-12-04T14:17:43;-0.10;77.30
3850;DHT22;1940;51.052;13.678;2023-12-04T14:20:09;-0.10;77.40
3850;DHT22;1940;51.052;13.678;2023-12-04T14:22:40;0.00;76.80
3850;DHT22;1940;51.052;13.678;2023-12-04T14:25:06;-0.10;77.00
3850;DHT22;1940;51.052;13.678;2023-12-04T14:27:32;-0.10;77.20
3850;DHT22;1940;51.052;13.678;2023-12-04T14:29:57;-0.10;76.70
3850;DHT22;1940;51.052;13.678;2023-12-04T14:32:23;-0.10;77.10
3850;DHT22;1940;51.052;13.678;2023-12-04T14:34:48;-0.10;77.20
3850;DHT22;1940;51.052;13.678;2023-12-04T14:37:14;-0.10;77.30
3850;DHT22;1940;51.052;13.678;2023-12-04T14:39:39;-0.10;77.20
3850;DHT22;1940;51.052;13.678;2023-12-04T14:42:05;-0.10;77.00
3850;DHT22;1940;51.052;13.678;2023-12-04T14:44:31;-0.10;77.30
3850;DHT22;1940;51.052;13.678;2023-12-04T14:46:58;-0.10;77.10
3850;DHT22;1940;51.052;13.678;2023-12-04T14:49:24;0.00;77.00
3850;DHT22;1940;51.052;13.678;2023-12-04T14:51:50;-0.20;76.60
3850;DHT22;1940;51.052;13.678;2023-12-04T14:54:15;-0.20;77.20
3850;DHT22;1940;51.052;13.678;2023-12-04T14:56:47;-0.20;77.30
3850;DHT22;1940;51.052;13.678;2023-12-04T14:59:31;-0.20;77.60
3850;DHT22;1940;51.052;13.678;2023-12-04T15:02:15;-0.10;77.70
3850;DHT22;1940;51.052;13.678;2023-12-04T15:04:43;-0.20;77.60
3850;DHT22;1940;51.052;13.678;2023-12-04T15:07:09;-0.20;77.40
3850;DHT22;1940;51.052;13.678;2023-12-04T15:09:47;-0.20;77.60
3850;DHT22;1940;51.052;13.678;2023-12-04T15:12:31;-0.30;77.60
3850;DHT22;1940;51.052;13.678;2023-12-04T15:15:31;-0.30;77.80
3850;DHT22;1940;51.052;13.678;2023-12-04T15:17:57;-0.30;78.10
3850;DHT22;1940;51.052;13.678;2023-12-04T15:20:42;-0.30;77.60
3850;DHT22;1940;51.052;13.678;2023-12-04T15:23:09;-0.40;77.90
3850;DHT22;1940;51.052;13.678;2023-12-04T15:25:34;-0.40;78.20
3850;DHT22;1940;51.052;13.678;2023-12-04T15:28:00;-0.40;78.60
3850;DHT22;1940;51.052;13.678;2023-12-04T15:30:29;-0.30;78.00
3850;DHT22;1940;51.052;13.678;2023-12-04T15:32:54;-0.40;78.20
3850;DHT22;1940;51.052;13.678;2023-12-04T15:35:20;-0.30;78.20
3850;DHT22;1940;51.052;13.678;2023-12-04T15:37:45;-0.30;77.90
3850;DHT22;1940;51.052;13.678;2023-12-04T15:40:11;-0.30;77.60
3850;DHT22;1940;51.052;13.678;2023-12-04T15:42:36;-0.40;77.70
3850;DHT22;1940;51.052;13.678;2023-12-04T15:45:02;-0.40;77.80
3850;DHT22;1940;51.052;13.678;2023-12-04T15:47:28;-0.40;77.90
3850;DHT22;1940;51.052;13.678;2023-12-04T15:49:53;-0.40;77.80
3850;DHT22;1940;51.052;13.678;2023-12-04T15:52:19;-0.40;77.80
3850;DHT22;1940;51.052;13.678;2023-12-04T15:54:47;-0.40;77.90